Fort Wingate, New Mexico
Current Conditions -  °F | °C
As of 4:53 PM on Monday 20 Oct 2014 (Local Time) from KGUP Reporting Station
Clear Clear  
Wind Chill: 18°   Ceiling: Unl
Heat Index: 18°   Visibility: 10mi
Dew Point:   Wind: 0mph
Humidity: 42%   Direction: NA
Pressure: 30.14"   Gusts: NA
Location:  35.47°N, 108.55°W
Report Text: KGUP 202253Z AUTO 00000KT 10SM CLR 18/05 A3014 RMK AO2 SLP124 T01830050
Loading
Personal Weather Stations






























Interactive Weather Map
Tropical Storm Tracking
New forecast layout! Learn more

10-Day Weather Forecast

Advertisements
Track Severe Weather on mobile